sensor_id;sensor_type;location;lat;lon;timestamp;P1;durP1;ratioP1;P2;durP2;ratioP2
40591;SDS011;26301;42.832;23.918;2023-08-24T00:00:59;13.90;;;10.85;;
40591;SDS011;26301;42.832;23.918;2023-08-24T00:03:25;14.65;;;10.85;;
40591;SDS011;26301;42.832;23.918;2023-08-24T00:05:52;19.13;;;11.05;;
40591;SDS011;26301;42.832;23.918;2023-08-24T00:08:18;14.45;;;10.73;;
40591;SDS011;26301;42.832;23.918;2023-08-24T00:10:45;15.52;;;11.43;;
40591;SDS011;26301;42.832;23.918;2023-08-24T00:13:13;11.50;;;9.98;;
40591;SDS011;26301;42.832;23.918;2023-08-24T00:15:40;12.18;;;11.07;;
40591;SDS011;26301;42.832;23.918;2023-08-24T00:18:07;12.43;;;11.07;;
40591;SDS011;26301;42.832;23.918;2023-08-24T00:20:33;13.85;;;10.88;;
40591;SDS011;26301;42.832;23.918;2023-08-24T00:23:02;16.10;;;11.05;;
40591;SDS011;26301;42.832;23.918;2023-08-24T00:25:29;12.68;;;10.65;;
40591;SDS011;26301;42.832;23.918;2023-08-24T00:27:56;13.50;;;10.52;;
40591;SDS011;26301;42.832;23.918;2023-08-24T00:30:23;11.43;;;10.27;;
40591;SDS011;26301;42.832;23.918;2023-08-24T00:32:50;11.93;;;10.00;;
40591;SDS011;26301;42.832;23.918;2023-08-24T00:35:16;14.57;;;11.55;;
40591;SDS011;26301;42.832;23.918;2023-08-24T00:37:42;13.77;;;10.50;;
40591;SDS011;26301;42.832;23.918;2023-08-24T00:40:11;12.02;;;10.82;;
40591;SDS011;26301;42.832;23.918;2023-08-24T00:42:40;12.00;;;10.43;;
40591;SDS011;26301;42.832;23.918;2023-08-24T00:45:10;12.38;;;10.00;;
40591;SDS011;26301;42.832;23.918;2023-08-24T00:47:37;15.80;;;10.63;;
40591;SDS011;26301;42.832;23.918;2023-08-24T00:50:06;11.80;;;10.57;;
40591;SDS011;26301;42.832;23.918;2023-08-24T00:52:33;14.63;;;10.40;;
40591;SDS011;26301;42.832;23.918;2023-08-24T00:55:04;11.27;;;9.80;;
40591;SDS011;26301;42.832;23.918;2023-08-24T00:57:31;12.32;;;10.38;;
40591;SDS011;26301;42.832;23.918;2023-08-24T00:59:59;12.48;;;10.13;;
40591;SDS011;26301;42.832;23.918;2023-08-24T01:02:28;16.08;;;10.98;;
40591;SDS011;26301;42.832;23.918;2023-08-24T01:04:57;11.40;;;9.75;;
40591;SDS011;26301;42.832;23.918;2023-08-24T01:07:23;11.55;;;10.27;;
40591;SDS011;26301;42.832;23.918;2023-08-24T01:09:49;11.30;;;9.32;;
40591;SDS011;26301;42.832;23.918;2023-08-24T01:12:22;10.82;;;9.73;;
40591;SDS011;26301;42.832;23.918;2023-08-24T01:14:56;11.10;;;9.70;;
40591;SDS011;26301;42.832;23.918;2023-08-24T01:17:24;12.02;;;10.00;;
40591;SDS011;26301;42.832;23.918;2023-08-24T01:19:54;13.13;;;10.52;;
40591;SDS011;26301;42.832;23.918;2023-08-24T01:27:35;12.70;;;10.07;;
40591;SDS011;26301;42.832;23.918;2023-08-24T01:30:02;12.23;;;11.00;;
40591;SDS011;26301;42.832;23.918;2023-08-24T01:32:32;13.25;;;10.82;;
40591;SDS011;26301;42.832;23.918;2023-08-24T01:34:58;12.80;;;11.50;;
40591;SDS011;26301;42.832;23.918;2023-08-24T01:37:25;12.70;;;10.90;;
40591;SDS011;26301;42.832;23.918;2023-08-24T01:40:03;12.77;;;11.40;;
40591;SDS011;26301;42.832;23.918;2023-08-24T01:42:40;13.52;;;11.30;;
40591;SDS011;26301;42.832;23.918;2023-08-24T01:45:14;12.05;;;10.23;;
40591;SDS011;26301;42.832;23.918;2023-08-24T01:47:41;12.13;;;10.90;;
40591;SDS011;26301;42.832;23.918;2023-08-24T01:50:08;12.27;;;10.45;;
40591;SDS011;26301;42.832;23.918;2023-08-24T01:52:34;12.57;;;11.27;;
40591;SDS011;26301;42.832;23.918;2023-08-24T01:55:01;12.82;;;11.52;;
40591;SDS011;26301;42.832;23.918;2023-08-24T01:57:26;12.13;;;10.85;;
40591;SDS011;26301;42.832;23.918;2023-08-24T01:59:51;11.98;;;10.75;;
40591;SDS011;26301;42.832;23.918;2023-08-24T02:02:17;13.75;;;11.15;;
40591;SDS011;26301;42.832;23.918;2023-08-24T02:04:42;12.02;;;10.65;;
40591;SDS011;26301;42.832;23.918;2023-08-24T02:07:08;13.25;;;10.88;;
40591;SDS011;26301;42.832;23.918;2023-08-24T02:09:33;12.48;;;10.82;;
40591;SDS011;26301;42.832;23.918;2023-08-24T02:11:59;12.85;;;11.15;;
40591;SDS011;26301;42.832;23.918;2023-08-24T02:14:24;13.63;;;11.18;;
40591;SDS011;26301;42.832;23.918;2023-08-24T02:16:50;13.73;;;10.32;;
40591;SDS011;26301;42.832;23.918;2023-08-24T02:19:15;16.92;;;10.40;;
40591;SDS011;26301;42.832;23.918;2023-08-24T02:21:41;16.40;;;11.25;;
40591;SDS011;26301;42.832;23.918;2023-08-24T02:24:06;14.48;;;11.15;;
40591;SDS011;26301;42.832;23.918;2023-08-24T02:26:32;11.70;;;9.98;;
40591;SDS011;26301;42.832;23.918;2023-08-24T02:28:58;13.85;;;10.48;;
40591;SDS011;26301;42.832;23.918;2023-08-24T02:31:24;11.75;;;10.52;;
40591;SDS011;26301;42.832;23.918;2023-08-24T02:33:50;13.48;;;9.90;;
40591;SDS011;26301;42.832;23.918;2023-08-24T02:36:17;14.70;;;9.98;;
40591;SDS011;26301;42.832;23.918;2023-08-24T02:38:43;11.95;;;10.48;;
40591;SDS011;26301;42.832;23.918;2023-08-24T02:41:09;11.57;;;9.80;;
40591;SDS011;26301;42.832;23.918;2023-08-24T02:43:37;13.60;;;10.75;;
40591;SDS011;26301;42.832;23.918;2023-08-24T02:46:05;12.30;;;10.52;;
40591;SDS011;26301;42.832;23.918;2023-08-24T02:48:37;14.15;;;10.77;;
40591;SDS011;26301;42.832;23.918;2023-08-24T02:51:03;12.40;;;9.82;;
40591;SDS011;26301;42.832;23.918;2023-08-24T02:53:30;11.63;;;10.40;;
40591;SDS011;26301;42.832;23.918;2023-08-24T02:55:56;12.73;;;10.50;;
40591;SDS011;26301;42.832;23.918;2023-08-24T02:58:23;11.32;;;10.25;;
40591;SDS011;26301;42.832;23.918;2023-08-24T03:00:49;12.43;;;10.77;;
40591;SDS011;26301;42.832;23.918;2023-08-24T03:03:15;15.50;;;11.10;;
40591;SDS011;26301;42.832;23.918;2023-08-24T03:05:54;11.80;;;10.45;;
40591;SDS011;26301;42.832;23.918;2023-08-24T03:08:21;11.38;;;10.27;;
40591;SDS011;26301;42.832;23.918;2023-08-24T03:10:47;12.60;;;10.15;;
40591;SDS011;26301;42.832;23.918;2023-08-24T03:13:15;11.13;;;9.88;;
40591;SDS011;26301;42.832;23.918;2023-08-24T03:15:41;12.02;;;10.50;;
40591;SDS011;26301;42.832;23.918;2023-08-24T03:18:07;12.10;;;10.90;;
40591;SDS011;26301;42.832;23.918;2023-08-24T03:20:36;12.07;;;10.88;;
40591;SDS011;26301;42.832;23.918;2023-08-24T03:23:02;15.15;;;10.75;;
40591;SDS011;26301;42.832;23.918;2023-08-24T03:25:28;12.45;;;11.25;;
40591;SDS011;26301;42.832;23.918;2023-08-24T03:27:55;14.43;;;10.43;;
40591;SDS011;26301;42.832;23.918;2023-08-24T03:30:22;12.70;;;10.85;;
40591;SDS011;26301;42.832;23.918;2023-08-24T03:32:48;12.57;;;11.18;;
40591;SDS011;26301;42.832;23.918;2023-08-24T03:35:13;15.57;;;12.23;;
40591;SDS011;26301;42.832;23.918;2023-08-24T03:37:40;12.55;;;11.25;;
40591;SDS011;26301;42.832;23.918;2023-08-24T03:40:06;12.30;;;11.00;;
40591;SDS011;26301;42.832;23.918;2023-08-24T03:42:32;12.00;;;10.80;;
40591;SDS011;26301;42.832;23.918;2023-08-24T03:44:59;12.60;;;11.35;;
40591;SDS011;26301;42.832;23.918;2023-08-24T03:47:26;16.23;;;11.43;;
40591;SDS011;26301;42.832;23.918;2023-08-24T03:49:52;13.18;;;11.70;;
40591;SDS011;26301;42.832;23.918;2023-08-24T03:52:18;13.25;;;11.82;;
40591;SDS011;26301;42.832;23.918;2023-08-24T03:54:44;13.43;;;12.10;;
40591;SDS011;26301;42.832;23.918;2023-08-24T03:57:10;12.23;;;10.90;;
40591;SDS011;26301;42.832;23.918;2023-08-24T03:59:36;14.95;;;12.65;;
40591;SDS011;26301;42.832;23.918;2023-08-24T04:02:02;13.23;;;11.55;;
40591;SDS011;26301;42.832;23.918;2023-08-24T04:04:29;16.08;;;11.77;;
40591;SDS011;26301;42.832;23.918;2023-08-24T04:06:55;16.73;;;12.63;;
40591;SDS011;26301;42.832;23.918;2023-08-24T04:09:21;13.35;;;12.00;;
40591;SDS011;26301;42.832;23.918;2023-08-24T04:11:47;13.07;;;11.75;;
40591;SDS011;26301;42.832;23.918;2023-08-24T04:14:13;16.15;;;13.32;;
40591;SDS011;26301;42.832;23.918;2023-08-24T04:16:39;12.70;;;11.38;;
40591;SDS011;26301;42.832;23.918;2023-08-24T04:19:07;15.25;;;13.07;;
40591;SDS011;26301;42.832;23.918;2023-08-24T04:21:34;12.80;;;11.50;;
40591;SDS011;26301;42.832;23.918;2023-08-24T04:24:00;17.92;;;14.52;;
40591;SDS011;26301;42.832;23.918;2023-08-24T04:26:36;13.23;;;11.82;;
40591;SDS011;26301;42.832;23.918;2023-08-24T04:31:30;13.40;;;12.00;;
40591;SDS011;26301;42.832;23.918;2023-08-24T04:33:56;14.00;;;12.57;;
40591;SDS011;26301;42.832;23.918;2023-08-24T04:36:21;17.92;;;13.38;;
40591;SDS011;26301;42.832;23.918;2023-08-24T04:38:47;15.77;;;13.88;;
40591;SDS011;26301;42.832;23.918;2023-08-24T04:41:12;14.57;;;13.07;;
40591;SDS011;26301;42.832;23.918;2023-08-24T04:43:38;18.67;;;14.30;;
40591;SDS011;26301;42.832;23.918;2023-08-24T04:46:03;14.00;;;12.52;;
40591;SDS011;26301;42.832;23.918;2023-08-24T04:48:29;17.02;;;13.57;;
40591;SDS011;26301;42.832;23.918;2023-08-24T04:50:59;14.50;;;13.02;;
40591;SDS011;26301;42.832;23.918;2023-08-24T04:53:26;15.32;;;12.60;;
40591;SDS011;26301;42.832;23.918;2023-08-24T04:55:51;14.52;;;12.95;;
40591;SDS011;26301;42.832;23.918;2023-08-24T04:58:18;14.65;;;13.15;;
40591;SDS011;26301;42.832;23.918;2023-08-24T05:00:43;15.85;;;14.18;;
40591;SDS011;26301;42.832;23.918;2023-08-24T05:03:09;14.93;;;13.15;;
40591;SDS011;26301;42.832;23.918;2023-08-24T05:05:35;15.07;;;13.65;;
40591;SDS011;26301;42.832;23.918;2023-08-24T05:08:02;15.25;;;13.65;;
40591;SDS011;26301;42.832;23.918;2023-08-24T05:10:31;14.85;;;13.32;;
40591;SDS011;26301;42.832;23.918;2023-08-24T05:12:58;14.00;;;12.63;;
40591;SDS011;26301;42.832;23.918;2023-08-24T05:15:24;14.80;;;13.30;;
40591;SDS011;26301;42.832;23.918;2023-08-24T05:17:50;14.85;;;13.45;;
40591;SDS011;26301;42.832;23.918;2023-08-24T05:20:19;19.38;;;14.35;;
40591;SDS011;26301;42.832;23.918;2023-08-24T05:22:49;14.95;;;13.45;;
40591;SDS011;26301;42.832;23.918;2023-08-24T05:25:35;15.75;;;14.02;;
40591;SDS011;26301;42.832;23.918;2023-08-24T05:28:00;16.20;;;13.60;;
40591;SDS011;26301;42.832;23.918;2023-08-24T05:30:26;19.23;;;14.63;;
40591;SDS011;26301;42.832;23.918;2023-08-24T05:32:54;16.63;;;13.73;;
40591;SDS011;26301;42.832;23.918;2023-08-24T05:35:19;15.10;;;13.50;;
40591;SDS011;26301;42.832;23.918;2023-08-24T05:37:47;14.98;;;13.48;;
40591;SDS011;26301;42.832;23.918;2023-08-24T05:40:13;14.38;;;13.07;;
40591;SDS011;26301;42.832;23.918;2023-08-24T05:42:38;14.20;;;12.80;;
40591;SDS011;26301;42.832;23.918;2023-08-24T05:45:04;17.00;;;12.85;;
40591;SDS011;26301;42.832;23.918;2023-08-24T05:47:29;16.40;;;13.48;;
40591;SDS011;26301;42.832;23.918;2023-08-24T05:49:55;14.85;;;13.45;;
40591;SDS011;26301;42.832;23.918;2023-08-24T05:52:20;16.00;;;13.63;;
40591;SDS011;26301;42.832;23.918;2023-08-24T05:54:46;16.75;;;13.90;;
40591;SDS011;26301;42.832;23.918;2023-08-24T05:57:11;14.50;;;13.05;;
40591;SDS011;26301;42.832;23.918;2023-08-24T05:59:37;15.63;;;13.55;;
40591;SDS011;26301;42.832;23.918;2023-08-24T06:02:02;15.32;;;13.85;;
40591;SDS011;26301;42.832;23.918;2023-08-24T06:04:28;14.68;;;13.18;;
40591;SDS011;26301;42.832;23.918;2023-08-24T06:06:54;15.23;;;13.82;;
40591;SDS011;26301;42.832;23.918;2023-08-24T06:09:19;15.07;;;13.77;;
40591;SDS011;26301;42.832;23.918;2023-08-24T06:11:45;15.70;;;14.10;;
40591;SDS011;26301;42.832;23.918;2023-08-24T06:14:12;15.98;;;14.43;;
40591;SDS011;26301;42.832;23.918;2023-08-24T06:16:37;15.55;;;14.05;;
40591;SDS011;26301;42.832;23.918;2023-08-24T06:19:02;15.80;;;14.00;;
40591;SDS011;26301;42.832;23.918;2023-08-24T06:21:28;19.20;;;13.98;;
40591;SDS011;26301;42.832;23.918;2023-08-24T06:23:54;15.20;;;13.25;;
40591;SDS011;26301;42.832;23.918;2023-08-24T06:26:20;15.52;;;13.93;;
40591;SDS011;26301;42.832;23.918;2023-08-24T06:28:45;15.25;;;13.65;;
40591;SDS011;26301;42.832;23.918;2023-08-24T06:31:11;15.68;;;14.07;;
40591;SDS011;26301;42.832;23.918;2023-08-24T06:33:37;15.50;;;14.00;;
40591;SDS011;26301;42.832;23.918;2023-08-24T06:36:03;14.38;;;13.05;;
40591;SDS011;26301;42.832;23.918;2023-08-24T06:38:33;18.13;;;13.45;;
40591;SDS011;26301;42.832;23.918;2023-08-24T06:40:58;15.25;;;13.70;;
40591;SDS011;26301;42.832;23.918;2023-08-24T06:43:27;15.43;;;14.02;;
40591;SDS011;26301;42.832;23.918;2023-08-24T06:45:56;14.98;;;13.57;;
40591;SDS011;26301;42.832;23.918;2023-08-24T06:48:21;14.63;;;13.32;;
40591;SDS011;26301;42.832;23.918;2023-08-24T06:50:47;15.05;;;13.32;;
40591;SDS011;26301;42.832;23.918;2023-08-24T06:53:13;15.27;;;12.35;;
40591;SDS011;26301;42.832;23.918;2023-08-24T06:55:40;15.13;;;12.57;;
40591;SDS011;26301;42.832;23.918;2023-08-24T06:58:06;15.20;;;13.65;;
40591;SDS011;26301;42.832;23.918;2023-08-24T07:00:34;15.88;;;13.57;;
40591;SDS011;26301;42.832;23.918;2023-08-24T07:03:02;14.98;;;12.85;;
40591;SDS011;26301;42.832;23.918;2023-08-24T07:05:29;14.05;;;12.60;;
40591;SDS011;26301;42.832;23.918;2023-08-24T07:08:06;13.80;;;12.40;;
40591;SDS011;26301;42.832;23.918;2023-08-24T07:10:34;14.15;;;12.43;;
40591;SDS011;26301;42.832;23.918;2023-08-24T07:13:00;14.20;;;12.90;;
40591;SDS011;26301;42.832;23.918;2023-08-24T07:15:26;14.25;;;12.65;;
40591;SDS011;26301;42.832;23.918;2023-08-24T07:17:52;13.35;;;11.85;;
40591;SDS011;26301;42.832;23.918;2023-08-24T07:20:17;13.32;;;12.13;;
40591;SDS011;26301;42.832;23.918;2023-08-24T07:22:44;14.57;;;13.07;;
40591;SDS011;26301;42.832;23.918;2023-08-24T07:25:18;14.35;;;12.85;;
40591;SDS011;26301;42.832;23.918;2023-08-24T07:30:13;13.10;;;10.85;;
40591;SDS011;26301;42.832;23.918;2023-08-24T07:32:38;16.10;;;11.70;;
40591;SDS011;26301;42.832;23.918;2023-08-24T07:35:04;18.60;;;11.77;;
40591;SDS011;26301;42.832;23.918;2023-08-24T07:37:31;16.63;;;11.35;;
40591;SDS011;26301;42.832;23.918;2023-08-24T07:40:00;12.55;;;11.25;;
40591;SDS011;26301;42.832;23.918;2023-08-24T07:42:25;13.25;;;10.48;;
40591;SDS011;26301;42.832;23.918;2023-08-24T07:44:51;15.38;;;11.27;;
40591;SDS011;26301;42.832;23.918;2023-08-24T07:47:17;11.55;;;10.35;;
40591;SDS011;26301;42.832;23.918;2023-08-24T07:49:42;19.55;;;10.88;;
40591;SDS011;26301;42.832;23.918;2023-08-24T07:52:10;12.15;;;10.50;;
40591;SDS011;26301;42.832;23.918;2023-08-24T07:54:37;18.70;;;10.45;;
40591;SDS011;26301;42.832;23.918;2023-08-24T07:57:03;12.43;;;10.55;;
40591;SDS011;26301;42.832;23.918;2023-08-24T07:59:30;17.05;;;9.93;;
40591;SDS011;26301;42.832;23.918;2023-08-24T08:01:56;12.60;;;10.43;;
40591;SDS011;26301;42.832;23.918;2023-08-24T08:04:22;11.45;;;10.13;;
40591;SDS011;26301;42.832;23.918;2023-08-24T08:06:48;11.68;;;10.40;;
40591;SDS011;26301;42.832;23.918;2023-08-24T08:09:14;14.13;;;10.63;;
40591;SDS011;26301;42.832;23.918;2023-08-24T08:11:39;13.20;;;9.85;;
40591;SDS011;26301;42.832;23.918;2023-08-24T08:14:05;11.63;;;10.40;;
40591;SDS011;26301;42.832;23.918;2023-08-24T08:16:30;13.60;;;8.73;;
40591;SDS011;26301;42.832;23.918;2023-08-24T08:18:56;17.60;;;9.73;;
40591;SDS011;26301;42.832;23.918;2023-08-24T08:21:21;11.98;;;9.90;;
40591;SDS011;26301;42.832;23.918;2023-08-24T08:23:48;15.80;;;10.90;;
40591;SDS011;26301;42.832;23.918;2023-08-24T08:26:15;11.00;;;9.90;;
40591;SDS011;26301;42.832;23.918;2023-08-24T08:28:41;11.95;;;10.13;;
40591;SDS011;26301;42.832;23.918;2023-08-24T08:31:07;14.35;;;9.75;;
40591;SDS011;26301;42.832;23.918;2023-08-24T08:33:35;12.82;;;9.63;;
40591;SDS011;26301;42.832;23.918;2023-08-24T08:36:00;11.55;;;10.35;;
40591;SDS011;26301;42.832;23.918;2023-08-24T08:38:26;11.93;;;9.73;;
40591;SDS011;26301;42.832;23.918;2023-08-24T08:40:56;10.95;;;9.45;;
40591;SDS011;26301;42.832;23.918;2023-08-24T08:43:28;16.58;;;10.18;;
40591;SDS011;26301;42.832;23.918;2023-08-24T08:45:55;11.57;;;9.68;;
40591;SDS011;26301;42.832;23.918;2023-08-24T08:48:22;12.70;;;9.88;;
40591;SDS011;26301;42.832;23.918;2023-08-24T08:50:49;15.60;;;10.32;;
40591;SDS011;26301;42.832;23.918;2023-08-24T08:53:16;12.65;;;10.05;;
40591;SDS011;26301;42.832;23.918;2023-08-24T08:55:42;11.65;;;10.05;;
40591;SDS011;26301;42.832;23.918;2023-08-24T08:58:10;10.90;;;9.80;;
40591;SDS011;26301;42.832;23.918;2023-08-24T09:00:36;14.10;;;10.43;;
40591;SDS011;26301;42.832;23.918;2023-08-24T09:03:02;11.55;;;10.27;;
40591;SDS011;26301;42.832;23.918;2023-08-24T09:05:30;10.77;;;9.65;;
40591;SDS011;26301;42.832;23.918;2023-08-24T09:07:57;11.82;;;9.98;;
40591;SDS011;26301;42.832;23.918;2023-08-24T09:10:24;11.45;;;10.27;;
40591;SDS011;26301;42.832;23.918;2023-08-24T09:12:50;12.05;;;10.00;;
40591;SDS011;26301;42.832;23.918;2023-08-24T09:15:25;10.93;;;9.80;;
40591;SDS011;26301;42.832;23.918;2023-08-24T09:17:59;11.18;;;10.07;;
40591;SDS011;26301;42.832;23.918;2023-08-24T09:20:27;12.35;;;10.23;;
40591;SDS011;26301;42.832;23.918;2023-08-24T09:22:56;13.35;;;10.43;;
40591;SDS011;26301;42.832;23.918;2023-08-24T09:25:26;13.35;;;9.52;;
40591;SDS011;26301;42.832;23.918;2023-08-24T09:27:59;13.88;;;10.50;;
40591;SDS011;26301;42.832;23.918;2023-08-24T09:30:34;11.63;;;10.20;;
40591;SDS011;26301;42.832;23.918;2023-08-24T09:33:03;13.23;;;9.60;;
40591;SDS011;26301;42.832;23.918;2023-08-24T09:35:34;10.55;;;9.45;;
40591;SDS011;26301;42.832;23.918;2023-08-24T09:38:20;10.88;;;9.27;;
40591;SDS011;26301;42.832;23.918;2023-08-24T09:40:52;10.70;;;9.70;;
40591;SDS011;26301;42.832;23.918;2023-08-24T09:43:19;11.35;;;10.23;;
40591;SDS011;26301;42.832;23.918;2023-08-24T09:45:55;12.18;;;10.52;;
40591;SDS011;26301;42.832;23.918;2023-08-24T09:48:22;13.20;;;9.82;;
40591;SDS011;26301;42.832;23.918;2023-08-24T09:50:52;10.77;;;9.68;;
40591;SDS011;26301;42.832;23.918;2023-08-24T09:53:19;11.98;;;9.82;;
40591;SDS011;26301;42.832;23.918;2023-08-24T09:55:49;18.00;;;11.23;;
40591;SDS011;26301;42.832;23.918;2023-08-24T09:58:26;13.20;;;9.63;;
40591;SDS011;26301;42.832;23.918;2023-08-24T10:00:52;12.05;;;10.13;;
40591;SDS011;26301;42.832;23.918;2023-08-24T10:03:20;13.27;;;10.18;;
40591;SDS011;26301;42.832;23.918;2023-08-24T10:05:51;12.32;;;9.45;;
40591;SDS011;26301;42.832;23.918;2023-08-24T10:08:22;11.40;;;9.38;;
40591;SDS011;26301;42.832;23.918;2023-08-24T10:10:55;10.70;;;9.43;;
40591;SDS011;26301;42.832;23.918;2023-08-24T10:16:26;10.37;;;9.43;;
40591;SDS011;26301;42.832;23.918;2023-08-24T10:18:55;12.18;;;9.13;;
40591;SDS011;26301;42.832;23.918;2023-08-24T10:21:23;10.93;;;9.80;;
40591;SDS011;26301;42.832;23.918;2023-08-24T10:23:53;11.77;;;9.32;;
40591;SDS011;26301;42.832;23.918;2023-08-24T10:26:22;11.00;;;9.30;;
40591;SDS011;26301;42.832;23.918;2023-08-24T10:28:50;10.32;;;9.32;;
40591;SDS011;26301;42.832;23.918;2023-08-24T10:31:17;11.43;;;9.00;;
40591;SDS011;26301;42.832;23.918;2023-08-24T10:33:45;10.85;;;8.98;;
40591;SDS011;26301;42.832;23.918;2023-08-24T10:36:14;13.05;;;9.57;;
40591;SDS011;26301;42.832;23.918;2023-08-24T10:38:42;10.85;;;9.20;;
40591;SDS011;26301;42.832;23.918;2023-08-24T10:41:11;9.25;;;7.90;;
40591;SDS011;26301;42.832;23.918;2023-08-24T10:43:39;9.10;;;7.82;;
40591;SDS011;26301;42.832;23.918;2023-08-24T10:46:12;9.43;;;8.50;;
40591;SDS011;26301;42.832;23.918;2023-08-24T10:53:58;8.77;;;7.97;;
40591;SDS011;26301;42.832;23.918;2023-08-24T10:59:16;15.88;;;7.43;;
40591;SDS011;26301;42.832;23.918;2023-08-24T11:01:53;8.48;;;7.35;;
40591;SDS011;26301;42.832;23.918;2023-08-24T11:04:20;9.52;;;8.10;;
40591;SDS011;26301;42.832;23.918;2023-08-24T11:06:51;9.73;;;7.63;;
40591;SDS011;26301;42.832;23.918;2023-08-24T11:09:22;10.27;;;7.40;;
40591;SDS011;26301;42.832;23.918;2023-08-24T11:11:55;8.40;;;7.38;;
40591;SDS011;26301;42.832;23.918;2023-08-24T11:14:23;8.40;;;7.53;;
40591;SDS011;26301;42.832;23.918;2023-08-24T11:16:52;7.78;;;7.00;;
40591;SDS011;26301;42.832;23.918;2023-08-24T11:19:19;9.27;;;6.85;;
40591;SDS011;26301;42.832;23.918;2023-08-24T11:21:46;10.05;;;8.10;;
40591;SDS011;26301;42.832;23.918;2023-08-24T11:24:18;8.82;;;8.00;;
40591;SDS011;26301;42.832;23.918;2023-08-24T11:26:48;10.73;;;8.88;;
40591;SDS011;26301;42.832;23.918;2023-08-24T11:29:17;7.60;;;6.90;;
40591;SDS011;26301;42.832;23.918;2023-08-24T11:31:46;6.70;;;6.10;;
40591;SDS011;26301;42.832;23.918;2023-08-24T11:34:15;7.07;;;6.38;;
40591;SDS011;26301;42.832;23.918;2023-08-24T11:39:16;7.13;;;6.45;;
40591;SDS011;26301;42.832;23.918;2023-08-24T11:42:05;8.50;;;6.65;;
40591;SDS011;26301;42.832;23.918;2023-08-24T11:45:08;9.95;;;8.27;;
40591;SDS011;26301;42.832;23.918;2023-08-24T11:47:27;10.52;;;8.65;;
40591;SDS011;26301;42.832;23.918;2023-08-24T11:49:57;10.88;;;7.70;;
40591;SDS011;26301;42.832;23.918;2023-08-24T11:52:24;11.65;;;8.75;;
40591;SDS011;26301;42.832;23.918;2023-08-24T11:54:51;11.05;;;7.97;;
40591;SDS011;26301;42.832;23.918;2023-08-24T11:57:20;8.70;;;7.90;;
40591;SDS011;26301;42.832;23.918;2023-08-24T11:59:51;8.25;;;7.45;;
40591;SDS011;26301;42.832;23.918;2023-08-24T12:02:17;10.88;;;8.73;;
40591;SDS011;26301;42.832;23.918;2023-08-24T12:04:44;12.93;;;8.30;;
40591;SDS011;26301;42.832;23.918;2023-08-24T12:07:14;11.30;;;8.90;;
40591;SDS011;26301;42.832;23.918;2023-08-24T12:09:41;13.07;;;9.15;;
40591;SDS011;26301;42.832;23.918;2023-08-24T12:12:16;10.80;;;9.23;;
40591;SDS011;26301;42.832;23.918;2023-08-24T12:14:44;13.68;;;9.07;;
40591;SDS011;26301;42.832;23.918;2023-08-24T12:17:12;14.25;;;10.05;;
40591;SDS011;26301;42.832;23.918;2023-08-24T12:19:43;12.63;;;9.90;;
40591;SDS011;26301;42.832;23.918;2023-08-24T12:22:16;11.18;;;8.98;;
40591;SDS011;26301;42.832;23.918;2023-08-24T12:24:43;10.35;;;9.25;;
40591;SDS011;26301;42.832;23.918;2023-08-24T12:27:25;10.75;;;9.52;;
40591;SDS011;26301;42.832;23.918;2023-08-24T12:29:52;10.75;;;9.65;;
40591;SDS011;26301;42.832;23.918;2023-08-24T12:32:19;11.48;;;10.38;;
40591;SDS011;26301;42.832;23.918;2023-08-24T12:34:50;13.35;;;9.85;;
40591;SDS011;26301;42.832;23.918;2023-08-24T12:37:20;12.93;;;9.73;;
40591;SDS011;26301;42.832;23.918;2023-08-24T12:39:46;34.67;;;25.67;;
40591;SDS011;26301;42.832;23.918;2023-08-24T12:42:14;15.45;;;13.50;;
40591;SDS011;26301;42.832;23.918;2023-08-24T12:44:40;15.30;;;10.90;;
40591;SDS011;26301;42.832;23.918;2023-08-24T12:47:06;17.20;;;11.38;;
40591;SDS011;26301;42.832;23.918;2023-08-24T12:49:33;13.57;;;11.20;;
40591;SDS011;26301;42.832;23.918;2023-08-24T12:51:59;15.10;;;11.43;;
40591;SDS011;26301;42.832;23.918;2023-08-24T12:54:26;11.57;;;10.35;;
40591;SDS011;26301;42.832;23.918;2023-08-24T12:56:52;12.85;;;9.95;;
40591;SDS011;26301;42.832;23.918;2023-08-24T12:59:18;12.77;;;10.90;;
40591;SDS011;26301;42.832;23.918;2023-08-24T13:01:45;11.50;;;9.98;;
40591;SDS011;26301;42.832;23.918;2023-08-24T13:04:13;10.65;;;9.65;;
40591;SDS011;26301;42.832;23.918;2023-08-24T13:06:39;10.57;;;9.63;;
40591;SDS011;26301;42.832;23.918;2023-08-24T13:09:08;11.38;;;10.27;;
40591;SDS011;26301;42.832;23.918;2023-08-24T13:11:37;11.32;;;10.02;;
40591;SDS011;26301;42.832;23.918;2023-08-24T13:14:03;13.30;;;9.40;;
40591;SDS011;26301;42.832;23.918;2023-08-24T13:16:35;12.07;;;9.90;;
40591;SDS011;26301;42.832;23.918;2023-08-24T13:19:04;13.02;;;10.40;;
40591;SDS011;26301;42.832;23.918;2023-08-24T13:21:30;11.50;;;10.10;;
40591;SDS011;26301;42.832;23.918;2023-08-24T13:23:57;10.93;;;9.90;;
40591;SDS011;26301;42.832;23.918;2023-08-24T13:26:23;13.95;;;10.50;;
40591;SDS011;26301;42.832;23.918;2023-08-24T13:28:50;11.38;;;10.38;;
40591;SDS011;26301;42.832;23.918;2023-08-24T13:31:17;11.23;;;10.00;;
40591;SDS011;26301;42.832;23.918;2023-08-24T13:33:46;11.05;;;10.05;;
40591;SDS011;26301;42.832;23.918;2023-08-24T13:36:34;11.95;;;10.45;;
40591;SDS011;26301;42.832;23.918;2023-08-24T13:39:05;16.70;;;10.10;;
40591;SDS011;26301;42.832;23.918;2023-08-24T13:41:32;13.82;;;10.35;;
40591;SDS011;26301;42.832;23.918;2023-08-24T13:43:58;13.95;;;9.68;;
40591;SDS011;26301;42.832;23.918;2023-08-24T13:46:24;10.20;;;9.05;;
40591;SDS011;26301;42.832;23.918;2023-08-24T13:48:50;11.75;;;9.77;;
40591;SDS011;26301;42.832;23.918;2023-08-24T13:51:16;15.82;;;9.90;;
40591;SDS011;26301;42.832;23.918;2023-08-24T13:53:50;10.32;;;9.27;;
40591;SDS011;26301;42.832;23.918;2023-08-24T13:59:02;12.27;;;9.32;;
40591;SDS011;26301;42.832;23.918;2023-08-24T14:01:28;12.02;;;10.07;;
40591;SDS011;26301;42.832;23.918;2023-08-24T14:03:54;11.60;;;10.00;;
40591;SDS011;26301;42.832;23.918;2023-08-24T14:06:20;12.18;;;9.73;;
40591;SDS011;26301;42.832;23.918;2023-08-24T14:08:50;12.90;;;10.52;;
40591;SDS011;26301;42.832;23.918;2023-08-24T14:11:16;10.68;;;9.73;;
40591;SDS011;26301;42.832;23.918;2023-08-24T14:13:43;10.75;;;9.43;;
40591;SDS011;26301;42.832;23.918;2023-08-24T14:16:09;12.50;;;10.70;;
40591;SDS011;26301;42.832;23.918;2023-08-24T14:18:35;12.32;;;10.18;;
40591;SDS011;26301;42.832;23.918;2023-08-24T14:21:02;15.75;;;10.75;;
40591;SDS011;26301;42.832;23.918;2023-08-24T14:23:29;12.23;;;10.43;;
40591;SDS011;26301;42.832;23.918;2023-08-24T14:25:56;13.48;;;9.90;;
40591;SDS011;26301;42.832;23.918;2023-08-24T14:28:22;12.35;;;10.60;;
40591;SDS011;26301;42.832;23.918;2023-08-24T14:30:52;13.35;;;10.20;;
40591;SDS011;26301;42.832;23.918;2023-08-24T14:33:18;11.15;;;9.77;;
40591;SDS011;26301;42.832;23.918;2023-08-24T14:35:51;11.38;;;9.40;;
40591;SDS011;26301;42.832;23.918;2023-08-24T14:38:18;11.93;;;10.80;;
40591;SDS011;26301;42.832;23.918;2023-08-24T14:40:45;11.30;;;10.10;;
40591;SDS011;26301;42.832;23.918;2023-08-24T14:43:11;11.57;;;10.32;;